Time;durP1;ratioP1;P1;durP2;ratioP2;P2;SDS_P1;SDS_P2;PMS_P1;PMS_P2;Temp;Humidity;BMP_temperature;BMP_pressure;BME280_temperature;BME280_humidity;BME280_pressure;Samples;Min_cycle;Max_cycle;Signal;HPM_P1;HPM_P2
2022/06/07 00:02:06;;;;;;;;;;;11.90;99.90;;;;;;5041972;28;19921;-82
2022/06/07 00:04:32;;;;;;;;;;;11.90;99.90;;;;;;5009075;28;20052;-85
2022/06/07 00:06:58;;;;;;;;;;;11.90;99.90;;;;;;5007678;28;19916;-81
2022/06/07 00:09:24;;;;;;;;;;;11.90;99.90;;;;;;5024987;28;19925;-82
2022/06/07 00:11:49;;;;;;;;;;;11.90;99.90;;;;;;5031058;28;19921;-81
2022/06/07 00:14:15;;;;;;;;;;;11.90;99.90;;;;;;5001784;28;20358;-85
2022/06/07 00:16:41;;;;;;;;;;;11.90;99.90;;;;;;5021827;28;19963;-83
2022/06/07 00:19:06;;;;;;;;;;;11.90;99.90;;;;;;5017566;28;19936;-82
2022/06/07 00:21:32;;;;;;;;;;;11.90;99.90;;;;;;5018398;28;20366;-84
2022/06/07 00:23:59;;;;;;;;;;;11.90;99.90;;;;;;5018410;28;19920;-83
2022/06/07 00:26:31;;;;;;;;;;;11.90;99.90;;;;;;5050709;28;19917;-81
2022/06/07 00:28:58;;;;;;;;;;;11.90;99.90;;;;;;5007381;28;20320;-84
2022/06/07 00:31:23;;;;;;;;;;;11.90;99.90;;;;;;5020160;28;19917;-81
2022/06/07 00:33:49;;;;;;;;;;;11.90;99.90;;;;;;5002226;28;19938;-81
2022/06/07 00:36:15;;;;;;;;;;;11.90;99.90;;;;;;5026693;28;19924;-84
2022/06/07 00:38:43;;;;;;;;;;;11.90;99.90;;;;;;5017227;28;19917;-83
2022/06/07 00:41:09;;;;;;;;;;;11.90;99.90;;;;;;5017041;28;19917;-81
2022/06/07 00:43:36;;;;;;;;;;;11.80;99.90;;;;;;5017144;28;20274;-82
2022/06/07 00:46:05;;;;;;;;;;;11.80;99.90;;;;;;5018996;28;19920;-79
2022/06/07 00:48:31;;;;;;;;;;;11.80;99.90;;;;;;5004125;28;20359;-84
2022/06/07 00:51:06;;;;;;;;;;;11.80;99.90;;;;;;5019996;28;19918;-82
2022/06/07 00:53:35;;;;;;;;;;;11.80;99.90;;;;;;5009265;28;19920;-81
2022/06/07 00:56:01;;;;;;;;;;;11.80;99.90;;;;;;5019625;28;19917;-83
2022/06/07 00:58:28;;;;;;;;;;;11.80;99.90;;;;;;4982210;28;19957;-84
2022/06/07 01:00:55;;;;;;;;;;;11.80;99.90;;;;;;5014442;28;20377;-83
2022/06/07 01:03:21;;;;;;;;;;;11.80;99.90;;;;;;5001483;28;19924;-81
2022/06/07 01:05:47;;;;;;;;;;;11.80;99.90;;;;;;5050311;28;19924;-81
2022/06/07 01:10:56;;;;;;;;;;;11.80;99.90;;;;;;5016957;28;19944;-81
2022/06/07 01:13:25;;;;;;;;;;;11.80;99.90;;;;;;5027542;28;19917;-85
2022/06/07 01:15:55;;;;;;;;;;;11.80;99.90;;;;;;5006832;28;19923;-81
2022/06/07 01:18:24;;;;;;;;;;;11.90;99.90;;;;;;4999398;28;20004;-82
2022/06/07 01:21:09;;;;;;;;;;;11.90;99.90;;;;;;5023106;28;20361;-81
2022/06/07 01:23:34;;;;;;;;;;;11.90;99.90;;;;;;5003325;28;19925;-82
2022/06/07 01:26:00;;;;;;;;;;;11.90;99.90;;;;;;5046923;28;19959;-82
2022/06/07 01:28:29;;;;;;;;;;;11.90;99.90;;;;;;5012749;28;19976;-82
2022/06/07 01:30:57;;;;;;;;;;;11.90;99.90;;;;;;5013438;28;19917;-84
2022/06/07 01:33:23;;;;;;;;;;;11.90;99.90;;;;;;5015273;28;19924;-81
2022/06/07 01:35:59;;;;;;;;;;;12.00;99.90;;;;;;5048391;28;20031;-85
2022/06/07 01:38:24;;;;;;;;;;;12.00;99.90;;;;;;5001552;28;19925;-82
2022/06/07 01:43:34;;;;;;;;;;;11.90;99.90;;;;;;5014374;28;19917;-82
2022/06/07 01:46:03;;;;;;;;;;;11.90;99.90;;;;;;5011994;28;19924;-80
2022/06/07 01:48:29;;;;;;;;;;;11.90;99.90;;;;;;4999523;28;20017;-82
2022/06/07 01:51:01;;;;;;;;;;;12.00;99.90;;;;;;5009169;28;19961;-80
2022/06/07 01:53:27;;;;;;;;;;;12.00;99.90;;;;;;5044123;28;19964;-81
2022/06/07 01:55:59;;;;;;;;;;;12.00;99.90;;;;;;5007043;28;20350;-80
2022/06/07 01:58:25;;;;;;;;;;;12.00;99.90;;;;;;5008990;28;19968;-79
2022/06/07 02:00:52;;;;;;;;;;;12.00;99.90;;;;;;4995754;28;19956;-86
2022/06/07 02:03:18;;;;;;;;;;;12.00;99.90;;;;;;5016193;28;19917;-83
2022/06/07 02:05:52;;;;;;;;;;;12.00;99.90;;;;;;5036808;28;19917;-81
2022/06/07 02:08:18;;;;;;;;;;;12.00;99.90;;;;;;5001238;28;20271;-83
2022/06/07 02:10:44;;;;;;;;;;;12.10;99.90;;;;;;5037422;28;19937;-82
2022/06/07 02:13:09;;;;;;;;;;;12.10;99.90;;;;;;5016317;28;19917;-84
2022/06/07 02:15:35;;;;;;;;;;;12.10;99.90;;;;;;5020607;28;19918;-83
2022/06/07 02:18:01;;;;;;;;;;;12.10;99.90;;;;;;5013164;28;20013;-84
2022/06/07 02:20:26;;;;;;;;;;;12.00;99.90;;;;;;5007118;28;19956;-83
2022/06/07 02:22:52;;;;;;;;;;;12.10;99.90;;;;;;4995774;28;19925;-81
2022/06/07 02:25:17;;;;;;;;;;;12.10;99.90;;;;;;5017759;28;19921;-81
2022/06/07 02:27:43;;;;;;;;;;;12.10;99.90;;;;;;5035328;28;19924;-80
2022/06/07 02:30:09;;;;;;;;;;;12.10;99.90;;;;;;5014268;28;19924;-80
2022/06/07 02:32:35;;;;;;;;;;;12.20;99.90;;;;;;5025070;28;19996;-84
2022/06/07 02:35:01;;;;;;;;;;;12.20;99.90;;;;;;5030910;28;19917;-81
2022/06/07 02:37:28;;;;;;;;;;;12.20;99.90;;;;;;5028104;28;19944;-81
2022/06/07 02:39:54;;;;;;;;;;;12.20;99.90;;;;;;5013197;28;20371;-80
2022/06/07 02:42:21;;;;;;;;;;;12.20;99.90;;;;;;5020506;28;20377;-82
2022/06/07 02:44:47;;;;;;;;;;;12.20;99.90;;;;;;5037979;28;19922;-82
2022/06/07 02:47:12;;;;;;;;;;;12.20;99.90;;;;;;5002067;28;19924;-82
2022/06/07 02:49:38;;;;;;;;;;;12.30;99.90;;;;;;5029448;28;19917;-83
2022/06/07 02:52:04;;;;;;;;;;;12.30;99.90;;;;;;5009355;28;20309;-81
2022/06/07 02:54:29;;;;;;;;;;;12.30;99.90;;;;;;5032863;28;20015;-82
2022/06/07 02:56:55;;;;;;;;;;;12.20;99.90;;;;;;5035823;28;19916;-82
2022/06/07 02:59:21;;;;;;;;;;;12.20;99.90;;;;;;5015421;28;19916;-82
2022/06/07 03:01:46;;;;;;;;;;;12.20;99.90;;;;;;5048636;28;19921;-83
2022/06/07 03:04:12;;;;;;;;;;;12.10;99.90;;;;;;5014212;28;19979;-86
2022/06/07 03:06:37;;;;;;;;;;;12.20;99.90;;;;;;4996252;28;19960;-82
2022/06/07 03:09:03;;;;;;;;;;;12.20;99.90;;;;;;5030569;28;19917;-80
2022/06/07 03:11:29;;;;;;;;;;;12.20;99.90;;;;;;4998697;28;20321;-82
2022/06/07 03:13:54;;;;;;;;;;;12.10;99.90;;;;;;5037517;28;19956;-81
2022/06/07 03:16:20;;;;;;;;;;;12.20;99.90;;;;;;5031358;28;19928;-82
2022/06/07 03:18:45;;;;;;;;;;;12.10;99.90;;;;;;5038611;28;19921;-79
2022/06/07 03:21:11;;;;;;;;;;;12.10;99.90;;;;;;5021470;28;19940;-80
2022/06/07 03:23:37;;;;;;;;;;;12.10;99.90;;;;;;5018826;28;20001;-77
2022/06/07 03:26:06;;;;;;;;;;;12.10;99.90;;;;;;5013494;28;19964;-83
2022/06/07 03:28:32;;;;;;;;;;;12.20;99.90;;;;;;5021113;28;19946;-83
2022/06/07 03:31:06;;;;;;;;;;;12.20;99.90;;;;;;5032447;28;20012;-80
2022/06/07 03:33:34;;;;;;;;;;;12.30;99.90;;;;;;5017258;28;20031;-79
2022/06/07 03:36:07;;;;;;;;;;;12.30;99.90;;;;;;5014631;28;19943;-81
2022/06/07 03:38:33;;;;;;;;;;;12.30;99.90;;;;;;5050772;28;19917;-80
2022/06/07 03:40:59;;;;;;;;;;;12.30;99.90;;;;;;5033996;28;20496;-80
2022/06/07 03:43:24;;;;;;;;;;;12.30;99.90;;;;;;5034343;28;19921;-83
2022/06/07 03:45:50;;;;;;;;;;;12.30;99.90;;;;;;5030231;28;20363;-82
2022/06/07 03:48:16;;;;;;;;;;;12.30;99.90;;;;;;5002892;28;19975;-82
2022/06/07 03:50:41;;;;;;;;;;;12.20;99.90;;;;;;5027439;28;20023;-80
2022/06/07 03:53:07;;;;;;;;;;;12.10;99.90;;;;;;4991978;28;19917;-82
2022/06/07 03:55:33;;;;;;;;;;;12.10;99.90;;;;;;5049864;28;19921;-80
2022/06/07 03:58:01;;;;;;;;;;;12.00;99.90;;;;;;5053726;28;19917;-83
2022/06/07 04:00:27;;;;;;;;;;;12.00;99.90;;;;;;5049605;28;19923;-80
2022/06/07 04:02:53;;;;;;;;;;;11.90;99.90;;;;;;5054154;28;19959;-78
2022/06/07 04:05:18;;;;;;;;;;;11.80;99.90;;;;;;5067688;28;19967;-85
2022/06/07 04:10:28;;;;;;;;;;;11.70;99.90;;;;;;5015739;28;20008;-78
2022/06/07 04:12:54;;;;;;;;;;;11.60;99.90;;;;;;5016503;28;20361;-84
2022/06/07 04:15:21;;;;;;;;;;;11.60;99.90;;;;;;5051070;28;19923;-83
2022/06/07 04:17:48;;;;;;;;;;;11.50;99.90;;;;;;5051861;28;19924;-83
2022/06/07 04:20:13;;;;;;;;;;;11.50;99.90;;;;;;4990084;28;19983;-83
2022/06/07 04:22:39;;;;;;;;;;;11.40;99.90;;;;;;4992873;28;20366;-83
2022/06/07 04:25:05;;;;;;;;;;;11.40;99.90;;;;;;5026952;28;19981;-82
2022/06/07 04:27:30;;;;;;;;;;;11.40;99.90;;;;;;5013859;28;20050;-83
2022/06/07 04:29:57;;;;;;;;;;;11.30;99.90;;;;;;4992256;28;19918;-83
2022/06/07 04:32:23;;;;;;;;;;;11.30;99.90;;;;;;5028242;28;20029;-81
2022/06/07 04:34:50;;;;;;;;;;;11.30;99.90;;;;;;5019373;28;19988;-79
2022/06/07 04:37:17;;;;;;;;;;;11.30;99.90;;;;;;5032983;28;20318;-81
2022/06/07 04:39:44;;;;;;;;;;;11.30;99.90;;;;;;5029553;28;19925;-80
2022/06/07 04:42:10;;;;;;;;;;;11.30;99.90;;;;;;4988845;28;19944;-83
2022/06/07 04:44:36;;;;;;;;;;;11.30;99.90;;;;;;4999900;28;20370;-79
2022/06/07 04:47:02;;;;;;;;;;;11.30;99.90;;;;;;5034125;28;20301;-82
2022/06/07 04:49:29;;;;;;;;;;;11.30;99.90;;;;;;5034427;28;19948;-81
2022/06/07 04:51:54;;;;;;;;;;;11.30;99.90;;;;;;5004198;28;19925;-81
2022/06/07 04:54:20;;;;;;;;;;;11.40;99.90;;;;;;5012137;28;19918;-81
2022/06/07 04:56:45;;;;;;;;;;;11.50;99.90;;;;;;5018586;28;19965;-82
2022/06/07 04:59:11;;;;;;;;;;;11.50;99.90;;;;;;5023836;28;20374;-83
2022/06/07 05:01:38;;;;;;;;;;;11.60;99.90;;;;;;5042902;28;19924;-85
2022/06/07 05:04:05;;;;;;;;;;;11.60;99.90;;;;;;5030385;28;19928;-78
2022/06/07 05:06:32;;;;;;;;;;;11.70;99.90;;;;;;5021416;28;20012;-80
2022/06/07 05:08:59;;;;;;;;;;;11.70;99.90;;;;;;5016688;28;19948;-83
2022/06/07 05:11:26;;;;;;;;;;;11.70;99.90;;;;;;5018709;28;20328;-80
2022/06/07 05:13:52;;;;;;;;;;;11.80;99.90;;;;;;5055851;28;19924;-85
2022/06/07 05:16:17;;;;;;;;;;;11.80;99.90;;;;;;5002400;28;19917;-85
2022/06/07 05:18:47;;;;;;;;;;;11.80;99.90;;;;;;4987232;28;19932;-83
2022/06/07 05:21:13;;;;;;;;;;;11.80;99.90;;;;;;5017420;28;19996;-79
2022/06/07 05:23:38;;;;;;;;;;;11.80;99.90;;;;;;5025933;28;20314;-81
2022/06/07 05:26:10;;;;;;;;;;;11.80;99.90;;;;;;5020309;28;19925;-81
2022/06/07 05:28:37;;;;;;;;;;;11.90;99.90;;;;;;5013075;28;19918;-82
2022/06/07 05:31:03;;;;;;;;;;;11.90;99.90;;;;;;5046842;28;20290;-81
2022/06/07 05:33:28;;;;;;;;;;;12.00;99.90;;;;;;4997032;28;19921;-81
2022/06/07 05:35:55;;;;;;;;;;;12.00;99.90;;;;;;5000956;28;19917;-83
2022/06/07 05:38:21;;;;;;;;;;;12.00;99.90;;;;;;5024826;28;19929;-81
2022/06/07 05:40:47;;;;;;;;;;;12.00;99.90;;;;;;5013850;28;19921;-81
2022/06/07 05:43:12;;;;;;;;;;;12.00;99.90;;;;;;5033976;28;19924;-82
2022/06/07 05:45:38;;;;;;;;;;;12.00;99.90;;;;;;5046457;28;20645;-79
2022/06/07 05:48:08;;;;;;;;;;;12.00;99.90;;;;;;5027745;28;19925;-83
2022/06/07 05:50:34;;;;;;;;;;;11.90;99.90;;;;;;5028158;28;20003;-79
2022/06/07 05:52:59;;;;;;;;;;;11.90;99.90;;;;;;5025533;28;19917;-82
2022/06/07 05:55:25;;;;;;;;;;;11.80;99.90;;;;;;4992403;28;19928;-81
2022/06/07 05:57:51;;;;;;;;;;;11.70;99.90;;;;;;5029215;28;19953;-85
2022/06/07 06:00:17;;;;;;;;;;;11.60;99.90;;;;;;5008767;28;19920;-82
2022/06/07 06:02:43;;;;;;;;;;;11.50;99.90;;;;;;5002479;28;20047;-84
2022/06/07 06:05:10;;;;;;;;;;;11.50;99.90;;;;;;5026643;28;20024;-86
2022/06/07 06:07:36;;;;;;;;;;;11.50;99.90;;;;;;5015706;28;20342;-82
2022/06/07 06:10:19;;;;;;;;;;;11.40;99.90;;;;;;5023233;28;19963;-82
2022/06/07 06:12:45;;;;;;;;;;;11.40;99.90;;;;;;5015807;28;19921;-84
2022/06/07 06:15:10;;;;;;;;;;;11.40;99.90;;;;;;5049795;28;19921;-81
2022/06/07 06:17:36;;;;;;;;;;;11.30;99.90;;;;;;5019224;28;19921;-79
2022/06/07 06:20:02;;;;;;;;;;;11.20;99.90;;;;;;5031770;28;19920;-83
2022/06/07 06:22:28;;;;;;;;;;;11.20;99.90;;;;;;5015845;28;19967;-83
2022/06/07 06:24:54;;;;;;;;;;;11.30;99.90;;;;;;5032600;28;20297;-81
2022/06/07 06:27:20;;;;;;;;;;;11.30;99.90;;;;;;5028133;28;20341;-83
2022/06/07 06:29:45;;;;;;;;;;;11.30;99.90;;;;;;5017072;28;19975;-85
2022/06/07 06:32:11;;;;;;;;;;;11.20;99.90;;;;;;4994016;28;19924;-83
2022/06/07 06:34:36;;;;;;;;;;;11.20;99.90;;;;;;5018359;28;19917;-81
2022/06/07 06:37:02;;;;;;;;;;;11.20;99.90;;;;;;5026805;28;20425;-81
2022/06/07 06:39:29;;;;;;;;;;;11.30;99.90;;;;;;5063580;28;20021;-82
2022/06/07 06:41:54;;;;;;;;;;;11.30;99.90;;;;;;5011389;28;19917;-85
2022/06/07 06:44:20;;;;;;;;;;;11.30;99.90;;;;;;5021759;28;19927;-81
2022/06/07 06:46:46;;;;;;;;;;;11.30;99.90;;;;;;5022878;28;19917;-81
2022/06/07 06:49:15;;;;;;;;;;;11.30;99.90;;;;;;5034728;28;19931;-80
2022/06/07 06:51:42;;;;;;;;;;;11.40;99.90;;;;;;5034889;28;19948;-83
2022/06/07 06:54:11;;;;;;;;;;;11.50;99.90;;;;;;5023262;28;19917;-81
2022/06/07 06:56:36;;;;;;;;;;;11.60;99.90;;;;;;5028279;28;19921;-79
2022/06/07 06:59:02;;;;;;;;;;;11.80;99.90;;;;;;5033876;28;19967;-81
2022/06/07 07:01:31;;;;;;;;;;;11.90;99.90;;;;;;5029707;28;20264;-82
2022/06/07 07:03:58;;;;;;;;;;;12.10;99.90;;;;;;4999935;28;19925;-83
2022/06/07 07:06:24;;;;;;;;;;;12.30;99.90;;;;;;5032627;28;19940;-84
2022/06/07 07:08:49;;;;;;;;;;;12.30;99.90;;;;;;5019837;28;19917;-81
2022/06/07 07:11:17;;;;;;;;;;;12.40;99.90;;;;;;5014432;28;19940;-84
2022/06/07 07:13:44;;;;;;;;;;;12.40;99.90;;;;;;5009026;28;19961;-82
2022/06/07 07:16:11;;;;;;;;;;;12.40;99.90;;;;;;5047730;28;20006;-81
2022/06/07 07:18:36;;;;;;;;;;;12.50;99.90;;;;;;5035313;28;20252;-85
2022/06/07 07:21:06;;;;;;;;;;;12.60;99.90;;;;;;5039531;28;19991;-82
2022/06/07 07:23:32;;;;;;;;;;;12.70;99.90;;;;;;5016050;28;19921;-84
2022/06/07 07:26:06;;;;;;;;;;;12.70;99.90;;;;;;5016258;28;19924;-80
2022/06/07 07:28:36;;;;;;;;;;;12.80;99.90;;;;;;5007227;28;20389;-83
2022/06/07 07:31:02;;;;;;;;;;;12.80;99.90;;;;;;5022166;28;19987;-83
2022/06/07 07:33:28;;;;;;;;;;;12.80;99.90;;;;;;5006066;28;19917;-80
2022/06/07 07:35:54;;;;;;;;;;;12.90;99.90;;;;;;5022007;28;19928;-83
2022/06/07 07:38:20;;;;;;;;;;;13.10;99.90;;;;;;5018516;28;20409;-81
2022/06/07 07:40:46;;;;;;;;;;;13.10;99.90;;;;;;5012348;28;19917;-79
2022/06/07 07:43:12;;;;;;;;;;;13.10;99.90;;;;;;5028047;28;19929;-81
2022/06/07 07:45:40;;;;;;;;;;;13.10;99.90;;;;;;5027119;28;19928;-81
2022/06/07 07:48:06;;;;;;;;;;;13.10;99.90;;;;;;5003440;28;19933;-79
2022/06/07 07:50:32;;;;;;;;;;;13.10;99.90;;;;;;5019864;28;20370;-83
2022/06/07 07:52:58;;;;;;;;;;;13.10;99.90;;;;;;5019454;28;20055;-83
2022/06/07 07:55:24;;;;;;;;;;;13.00;99.90;;;;;;5044110;28;20014;-81
2022/06/07 07:57:50;;;;;;;;;;;13.00;99.90;;;;;;5019733;28;19921;-83
2022/06/07 08:00:15;;;;;;;;;;;12.90;99.90;;;;;;5020953;28;19956;-82
2022/06/07 08:02:42;;;;;;;;;;;12.80;99.90;;;;;;5051066;28;19917;-84
2022/06/07 08:05:08;;;;;;;;;;;12.80;99.90;;;;;;5062999;28;20008;-85
2022/06/07 08:07:34;;;;;;;;;;;12.80;99.90;;;;;;4993706;28;20362;-82
2022/06/07 08:10:01;;;;;;;;;;;12.80;99.90;;;;;;5051780;28;19917;-84
2022/06/07 08:12:27;;;;;;;;;;;12.80;99.90;;;;;;5029775;28;19963;-84
2022/06/07 08:14:53;;;;;;;;;;;12.90;99.90;;;;;;5048947;28;19917;-83
2022/06/07 08:17:19;;;;;;;;;;;12.90;99.90;;;;;;4998966;28;19917;-81
2022/06/07 08:19:44;;;;;;;;;;;12.90;99.90;;;;;;5027651;28;20461;-82
2022/06/07 08:22:11;;;;;;;;;;;13.00;99.90;;;;;;5051803;28;19917;-83
2022/06/07 08:24:37;;;;;;;;;;;13.00;99.90;;;;;;5047547;28;19960;-81
2022/06/07 08:27:03;;;;;;;;;;;13.20;99.90;;;;;;5000401;28;19921;-82
2022/06/07 08:29:29;;;;;;;;;;;13.40;99.90;;;;;;5024467;28;19967;-83
2022/06/07 08:31:54;;;;;;;;;;;13.50;99.90;;;;;;5057613;28;19925;-83
2022/06/07 08:39:49;;;;;;;;;;;14.00;99.90;;;;;;5029097;28;19967;-81
2022/06/07 08:42:33;;;;;;;;;;;14.10;99.90;;;;;;5035638;28;19920;-82
2022/06/07 08:45:13;;;;;;;;;;;14.20;99.90;;;;;;5016968;28;19921;-85
2022/06/07 08:47:41;;;;;;;;;;;14.40;99.90;;;;;;5031501;28;19921;-82
2022/06/07 08:50:13;;;;;;;;;;;14.60;99.90;;;;;;5030948;28;19917;-81
2022/06/07 08:52:39;;;;;;;;;;;14.60;99.90;;;;;;5017784;28;20286;-81
2022/06/07 08:55:34;;;;;;;;;;;14.70;99.90;;;;;;5021518;28;19924;-82
2022/06/07 08:58:05;;;;;;;;;;;14.80;99.90;;;;;;4988295;28;19922;-84
2022/06/07 09:00:32;;;;;;;;;;;14.80;99.90;;;;;;5023287;28;19943;-81
2022/06/07 09:03:04;;;;;;;;;;;14.80;99.90;;;;;;5017092;28;19917;-81
2022/06/07 09:05:29;;;;;;;;;;;14.80;99.90;;;;;;5014088;28;19956;-83
2022/06/07 09:07:55;;;;;;;;;;;14.80;99.90;;;;;;5028946;28;19971;-83
2022/06/07 09:13:07;;;;;;;;;;;14.80;99.90;;;;;;5057664;28;20328;-83
2022/06/07 09:15:35;;;;;;;;;;;14.80;99.90;;;;;;5032866;28;19921;-84
2022/06/07 09:18:01;;;;;;;;;;;14.70;99.90;;;;;;5004459;28;20015;-81
2022/06/07 09:20:27;;;;;;;;;;;14.60;99.90;;;;;;5025613;28;19925;-85
2022/06/07 09:23:00;;;;;;;;;;;14.60;99.90;;;;;;5030499;28;20032;-81
2022/06/07 09:25:34;;;;;;;;;;;14.50;99.90;;;;;;5008644;28;19933;-83
2022/06/07 09:28:00;;;;;;;;;;;14.40;99.90;;;;;;4996779;28;19921;-81
2022/06/07 09:30:33;;;;;;;;;;;14.20;99.90;;;;;;5014834;28;19959;-84
2022/06/07 09:33:10;;;;;;;;;;;14.00;99.90;;;;;;5032295;28;20008;-84
2022/06/07 09:35:38;;;;;;;;;;;13.80;99.90;;;;;;5000532;28;19918;-86
2022/06/07 09:38:11;;;;;;;;;;;13.70;99.90;;;;;;5010801;28;19964;-82
2022/06/07 09:40:41;;;;;;;;;;;13.50;99.90;;;;;;5041137;28;19967;-82
2022/06/07 09:43:18;;;;;;;;;;;13.50;99.90;;;;;;5032154;28;19917;-83
2022/06/07 09:45:44;;;;;;;;;;;13.50;99.90;;;;;;5019204;28;19921;-85
2022/06/07 09:48:29;;;;;;;;;;;13.60;99.90;;;;;;5001460;28;20359;-80
2022/06/07 09:50:56;;;;;;;;;;;13.60;99.90;;;;;;5027643;28;19921;-78
2022/06/07 09:53:22;;;;;;;;;;;13.60;99.90;;;;;;5001726;28;19921;-81
2022/06/07 09:56:08;;;;;;;;;;;13.80;99.90;;;;;;4980647;28;19918;-84
2022/06/07 09:58:42;;;;;;;;;;;13.90;99.90;;;;;;4986699;28;19995;-80
2022/06/07 10:01:25;;;;;;;;;;;14.20;99.90;;;;;;5019317;28;19993;-82
2022/06/07 10:03:51;;;;;;;;;;;14.40;99.90;;;;;;5004295;28;19918;-84
2022/06/07 10:06:20;;;;;;;;;;;14.60;99.90;;;;;;5016602;28;19932;-82
2022/06/07 10:08:58;;;;;;;;;;;14.80;99.90;;;;;;5022177;28;19928;-80
2022/06/07 10:11:23;;;;;;;;;;;14.90;99.90;;;;;;5012579;28;19967;-81
2022/06/07 10:13:52;;;;;;;;;;;15.00;99.90;;;;;;4985612;28;20394;-82
2022/06/07 10:16:31;;;;;;;;;;;14.80;99.90;;;;;;5026578;28;20285;-81
2022/06/07 10:18:56;;;;;;;;;;;14.60;99.90;;;;;;5020355;28;19917;-82
2022/06/07 10:21:43;;;;;;;;;;;14.50;99.90;;;;;;5012462;28;20416;-81
2022/06/07 10:24:35;;;;;;;;;;;14.40;99.90;;;;;;5023506;28;19960;-82
2022/06/07 10:27:23;;;;;;;;;;;14.40;99.90;;;;;;4988226;28;19920;-84
2022/06/07 10:30:18;;;;;;;;;;;14.50;99.90;;;;;;5018737;28;19925;-83
2022/06/07 10:33:03;;;;;;;;;;;14.70;99.90;;;;;;5002887;28;20004;-81
2022/06/07 10:35:41;;;;;;;;;;;14.70;99.90;;;;;;5035448;28;20328;-80
2022/06/07 10:38:26;;;;;;;;;;;14.70;99.90;;;;;;5026446;28;19916;-81
2022/06/07 10:41:07;;;;;;;;;;;14.60;99.90;;;;;;5012542;28;19968;-80
2022/06/07 10:43:51;;;;;;;;;;;14.60;99.90;;;;;;5019146;28;19920;-82
2022/06/07 10:46:17;;;;;;;;;;;14.50;99.90;;;;;;5031716;28;19945;-80
2022/06/07 10:48:55;;;;;;;;;;;14.50;99.90;;;;;;4987271;28;19921;-83
2022/06/07 10:54:15;;;;;;;;;;;14.40;99.90;;;;;;5025919;28;19923;-82
2022/06/07 10:56:44;;;;;;;;;;;14.50;99.90;;;;;;5025405;28;19933;-83
2022/06/07 10:59:25;;;;;;;;;;;14.50;99.90;;;;;;5009036;28;19917;-83
2022/06/07 11:01:57;;;;;;;;;;;14.40;99.90;;;;;;5022669;28;20263;-82
2022/06/07 11:10:04;;;;;;;;;;;14.40;99.90;;;;;;5017488;28;19967;-81
2022/06/07 11:12:31;;;;;;;;;;;14.50;99.90;;;;;;5027204;28;19943;-81
2022/06/07 11:15:00;;;;;;;;;;;14.60;99.90;;;;;;5046934;28;19917;-80
2022/06/07 11:17:32;;;;;;;;;;;14.80;99.90;;;;;;4995444;28;20003;-82
2022/06/07 11:20:12;;;;;;;;;;;15.00;99.90;;;;;;5029851;28;19924;-81
2022/06/07 11:22:50;;;;;;;;;;;15.20;99.90;;;;;;5025743;28;19917;-83
2022/06/07 11:25:33;;;;;;;;;;;15.40;99.90;;;;;;5025181;28;19921;-83
2022/06/07 11:28:06;;;;;;;;;;;15.70;99.90;;;;;;4999524;28;19967;-85
2022/06/07 11:30:37;;;;;;;;;;;15.90;99.90;;;;;;5032584;28;19921;-80
2022/06/07 11:33:02;;;;;;;;;;;15.90;99.90;;;;;;5045208;28;19921;-81
2022/06/07 11:35:52;;;;;;;;;;;15.90;99.90;;;;;;4999741;28;20355;-82
2022/06/07 11:38:17;;;;;;;;;;;15.90;99.90;;;;;;5000902;28;19921;-81
2022/06/07 11:40:44;;;;;;;;;;;15.90;99.90;;;;;;5032833;28;19924;-81
2022/06/07 11:43:29;;;;;;;;;;;16.00;99.90;;;;;;5021545;28;19925;-83
2022/06/07 11:45:54;;;;;;;;;;;16.10;99.90;;;;;;5019473;28;19986;-86
2022/06/07 11:48:23;;;;;;;;;;;16.30;99.90;;;;;;4989780;28;20009;-83
2022/06/07 11:51:08;;;;;;;;;;;16.50;99.90;;;;;;5031910;28;19971;-85
2022/06/07 11:53:35;;;;;;;;;;;16.40;99.90;;;;;;4998736;28;19917;-82
2022/06/07 11:56:20;;;;;;;;;;;16.40;99.90;;;;;;4999137;28;19917;-84
2022/06/07 11:58:52;;;;;;;;;;;16.30;99.90;;;;;;5025019;28;19926;-84
2022/06/07 12:01:31;;;;;;;;;;;16.20;99.90;;;;;;4997719;28;19918;-82
2022/06/07 12:04:15;;;;;;;;;;;16.30;99.90;;;;;;5014455;28;19925;-81
2022/06/07 12:06:41;;;;;;;;;;;16.30;99.90;;;;;;5048563;28;19922;-80
2022/06/07 12:09:14;;;;;;;;;;;16.30;99.90;;;;;;4982475;28;20358;-83
2022/06/07 12:11:42;;;;;;;;;;;16.10;99.90;;;;;;5036267;28;20424;-82
2022/06/07 12:14:26;;;;;;;;;;;16.00;99.90;;;;;;5047827;28;19926;-82
2022/06/07 12:16:54;;;;;;;;;;;16.00;99.90;;;;;;5014881;28;19976;-81
2022/06/07 12:19:22;;;;;;;;;;;15.90;99.90;;;;;;5047907;28;19917;-82
2022/06/07 12:22:06;;;;;;;;;;;15.90;99.90;;;;;;5049006;28;19917;-84
2022/06/07 12:24:42;;;;;;;;;;;15.80;99.90;;;;;;5001616;28;19975;-84
2022/06/07 12:27:26;;;;;;;;;;;15.80;99.90;;;;;;5017753;28;20319;-83
2022/06/07 12:29:54;;;;;;;;;;;16.00;99.90;;;;;;5035584;28;20016;-81
2022/06/07 12:32:25;;;;;;;;;;;16.30;99.90;;;;;;5050772;28;20009;-81
2022/06/07 12:35:03;;;;;;;;;;;16.40;99.90;;;;;;5014133;28;19984;-80
2022/06/07 12:37:29;;;;;;;;;;;16.40;99.90;;;;;;5046990;28;19918;-83
2022/06/07 12:39:57;;;;;;;;;;;16.40;99.90;;;;;;4997549;28;19924;-79
2022/06/07 12:42:23;;;;;;;;;;;16.50;99.90;;;;;;5048325;28;19921;-82
2022/06/07 12:44:50;;;;;;;;;;;16.60;99.90;;;;;;4998082;28;19921;-81
2022/06/07 12:47:48;;;;;;;;;;;16.60;99.90;;;;;;5049525;28;19921;-85
2022/06/07 12:50:19;;;;;;;;;;;16.60;99.90;;;;;;4980380;28;19956;-80
2022/06/07 12:52:50;;;;;;;;;;;16.60;99.90;;;;;;5005138;28;19921;-81
2022/06/07 12:55:26;;;;;;;;;;;16.70;99.90;;;;;;4997759;28;19944;-82
2022/06/07 12:58:00;;;;;;;;;;;16.80;99.90;;;;;;4998835;28;20412;-81
2022/06/07 13:00:42;;;;;;;;;;;16.70;99.90;;;;;;5069150;28;19920;-82
2022/06/07 13:03:20;;;;;;;;;;;17.10;99.90;;;;;;5019078;28;19917;-80
2022/06/07 13:05:50;;;;;;;;;;;17.40;99.90;;;;;;5049257;28;20412;-83
2022/06/07 13:08:16;;;;;;;;;;;17.60;99.90;;;;;;5068735;28;19916;-83
2022/06/07 13:10:43;;;;;;;;;;;17.60;99.90;;;;;;5029417;28;19924;-80
2022/06/07 13:13:16;;;;;;;;;;;17.50;99.90;;;;;;5035656;28;19967;-83
2022/06/07 13:15:54;;;;;;;;;;;17.40;99.90;;;;;;5035977;28;20269;-84
2022/06/07 13:18:26;;;;;;;;;;;17.50;99.90;;;;;;5032469;28;19917;-80
2022/06/07 13:21:12;;;;;;;;;;;17.50;99.90;;;;;;5051674;28;19928;-83
2022/06/07 13:23:40;;;;;;;;;;;17.40;99.90;;;;;;5034707;28;19927;-82
2022/06/07 13:26:10;;;;;;;;;;;17.60;99.90;;;;;;5011540;28;19924;-83
2022/06/07 13:28:36;;;;;;;;;;;17.70;99.90;;;;;;5020495;28;19917;-81
2022/06/07 13:31:02;;;;;;;;;;;17.70;99.90;;;;;;5049906;28;20274;-89
2022/06/07 13:33:33;;;;;;;;;;;17.60;99.90;;;;;;5013742;28;19918;-80
2022/06/07 13:36:02;;;;;;;;;;;17.80;99.90;;;;;;5057476;28;19917;-82
2022/06/07 13:38:28;;;;;;;;;;;18.20;99.90;;;;;;5004560;28;19917;-80
2022/06/07 13:41:26;;;;;;;;;;;18.50;99.90;;;;;;5025642;28;20267;-79
2022/06/07 13:43:55;;;;;;;;;;;18.30;99.90;;;;;;4994508;28;19952;-81
2022/06/07 13:46:27;;;;;;;;;;;18.00;99.90;;;;;;5052856;28;19917;-79
2022/06/07 13:54:52;;;;;;;;;;;17.40;99.90;;;;;;5034962;28;20285;-82
2022/06/07 13:57:18;;;;;;;;;;;17.40;99.90;;;;;;5019047;28;19916;-81
2022/06/07 13:59:46;;;;;;;;;;;17.60;99.90;;;;;;5018464;28;20308;-82
2022/06/07 14:02:12;;;;;;;;;;;17.80;99.90;;;;;;5068958;28;19924;-79
2022/06/07 14:04:38;;;;;;;;;;;18.00;99.90;;;;;;4998877;28;19975;-81
2022/06/07 14:07:07;;;;;;;;;;;18.00;99.90;;;;;;5008964;28;19924;-80
2022/06/07 14:09:32;;;;;;;;;;;17.90;99.90;;;;;;4985490;28;19928;-81
2022/06/07 14:12:02;;;;;;;;;;;17.70;99.90;;;;;;4999933;28;19917;-79
2022/06/07 14:14:28;;;;;;;;;;;17.50;99.90;;;;;;5015816;28;19923;-82
2022/06/07 14:17:06;;;;;;;;;;;17.10;99.90;;;;;;5023984;28;19916;-81
2022/06/07 14:19:44;;;;;;;;;;;17.00;99.90;;;;;;5035359;28;19917;-83
2022/06/07 14:22:15;;;;;;;;;;;16.90;99.90;;;;;;5015838;28;19916;-82
2022/06/07 14:24:41;;;;;;;;;;;16.90;99.90;;;;;;5034632;28;19928;-82
2022/06/07 14:27:11;;;;;;;;;;;17.00;99.90;;;;;;5057731;28;19916;-81
2022/06/07 14:29:36;;;;;;;;;;;17.00;99.90;;;;;;5017831;28;19916;-79
2022/06/07 14:32:02;;;;;;;;;;;17.00;99.90;;;;;;5001997;28;19979;-83
2022/06/07 14:34:28;;;;;;;;;;;17.00;99.90;;;;;;4989525;28;19923;-83
2022/06/07 14:36:56;;;;;;;;;;;17.00;99.90;;;;;;5016519;28;20369;-85
2022/06/07 14:39:22;;;;;;;;;;;17.10;99.90;;;;;;5015323;28;19924;-82
2022/06/07 14:41:49;;;;;;;;;;;17.10;99.90;;;;;;5024614;28;19917;-83
2022/06/07 14:44:15;;;;;;;;;;;17.00;99.90;;;;;;5033957;28;19921;-80
2022/06/07 14:46:41;;;;;;;;;;;16.80;99.90;;;;;;5017214;28;19917;-80
2022/06/07 14:49:16;;;;;;;;;;;16.60;99.90;;;;;;5029204;28;20003;-80
2022/06/07 14:51:43;;;;;;;;;;;16.50;99.90;;;;;;4999121;28;20034;-84
2022/06/07 14:54:15;;;;;;;;;;;16.50;99.90;;;;;;4999707;28;19981;-82
2022/06/07 14:56:41;;;;;;;;;;;16.60;99.90;;;;;;5002627;28;20342;-79
2022/06/07 14:59:06;;;;;;;;;;;16.70;99.90;;;;;;5031412;28;19924;-81